sensor_id;sensor_type;location;lat;lon;timestamp;temperature;humidity
6581;DHT22;3324;50.796;7.228;2023-10-19T00:00:34;11.60;99.90
6581;DHT22;3324;50.796;7.228;2023-10-19T00:03:01;11.60;99.90
6581;DHT22;3324;50.796;7.228;2023-10-19T00:05:31;11.60;99.90
6581;DHT22;3324;50.796;7.228;2023-10-19T00:08:04;11.60;99.90
6581;DHT22;3324;50.796;7.228;2023-10-19T00:10:38;11.70;99.90
6581;DHT22;3324;50.796;7.228;2023-10-19T00:13:05;11.70;99.90
6581;DHT22;3324;50.796;7.228;2023-10-19T00:15:34;11.70;99.90
6581;DHT22;3324;50.796;7.228;2023-10-19T00:18:05;11.70;99.90
6581;DHT22;3324;50.796;7.228;2023-10-19T00:20:43;11.70;99.90
6581;DHT22;3324;50.796;7.228;2023-10-19T00:23:19;11.70;99.90
6581;DHT22;3324;50.796;7.228;2023-10-19T00:25:50;11.80;99.90
6581;DHT22;3324;50.796;7.228;2023-10-19T00:28:20;11.80;99.90
6581;DHT22;3324;50.796;7.228;2023-10-19T00:30:45;11.90;99.90
6581;DHT22;3324;50.796;7.228;2023-10-19T00:33:13;11.80;99.90
6581;DHT22;3324;50.796;7.228;2023-10-19T00:35:43;11.90;99.90
6581;DHT22;3324;50.796;7.228;2023-10-19T00:38:12;11.90;99.90
6581;DHT22;3324;50.796;7.228;2023-10-19T00:40:50;11.90;99.90
6581;DHT22;3324;50.796;7.228;2023-10-19T00:43:31;11.90;99.90
6581;DHT22;3324;50.796;7.228;2023-10-19T00:46:08;11.90;99.90
6581;DHT22;3324;50.796;7.228;2023-10-19T00:48:53;11.80;99.90
6581;DHT22;3324;50.796;7.228;2023-10-19T00:51:22;11.80;99.90
6581;DHT22;3324;50.796;7.228;2023-10-19T00:54:02;11.80;99.90
6581;DHT22;3324;50.796;7.228;2023-10-19T00:56:35;11.90;99.90
6581;DHT22;3324;50.796;7.228;2023-10-19T00:59:03;11.90;99.90
6581;DHT22;3324;50.796;7.228;2023-10-19T01:01:44;11.90;99.90
6581;DHT22;3324;50.796;7.228;2023-10-19T01:04:13;11.90;99.90
6581;DHT22;3324;50.796;7.228;2023-10-19T01:07:02;11.80;99.90
6581;DHT22;3324;50.796;7.228;2023-10-19T01:09:38;11.80;99.90
6581;DHT22;3324;50.796;7.228;2023-10-19T01:12:04;11.80;99.90
6581;DHT22;3324;50.796;7.228;2023-10-19T01:17:44;11.80;99.90
6581;DHT22;3324;50.796;7.228;2023-10-19T01:20:10;11.90;99.90
6581;DHT22;3324;50.796;7.228;2023-10-19T01:22:50;11.90;99.90
6581;DHT22;3324;50.796;7.228;2023-10-19T01:25:21;11.80;99.90
6581;DHT22;3324;50.796;7.228;2023-10-19T01:28:02;11.90;99.90
6581;DHT22;3324;50.796;7.228;2023-10-19T01:30:32;11.90;99.90
6581;DHT22;3324;50.796;7.228;2023-10-19T01:32:58;11.90;99.90
6581;DHT22;3324;50.796;7.228;2023-10-19T01:35:24;11.80;99.90
6581;DHT22;3324;50.796;7.228;2023-10-19T01:37:50;11.80;99.90
6581;DHT22;3324;50.796;7.228;2023-10-19T01:40:15;11.80;99.90
6581;DHT22;3324;50.796;7.228;2023-10-19T01:42:45;11.80;99.90
6581;DHT22;3324;50.796;7.228;2023-10-19T01:45:11;11.80;99.90
6581;DHT22;3324;50.796;7.228;2023-10-19T01:47:37;11.80;99.90
6581;DHT22;3324;50.796;7.228;2023-10-19T01:50:02;11.80;99.90
6581;DHT22;3324;50.796;7.228;2023-10-19T01:52:28;11.80;99.90
6581;DHT22;3324;50.796;7.228;2023-10-19T01:54:54;11.90;99.90
6581;DHT22;3324;50.796;7.228;2023-10-19T01:57:25;11.90;99.90
6581;DHT22;3324;50.796;7.228;2023-10-19T01:59:51;11.90;99.90
6581;DHT22;3324;50.796;7.228;2023-10-19T02:02:16;12.00;99.90
6581;DHT22;3324;50.796;7.228;2023-10-19T02:04:42;12.00;99.90
6581;DHT22;3324;50.796;7.228;2023-10-19T02:07:08;12.10;99.90
6581;DHT22;3324;50.796;7.228;2023-10-19T02:09:43;12.10;99.90
6581;DHT22;3324;50.796;7.228;2023-10-19T02:12:08;12.10;99.90
6581;DHT22;3324;50.796;7.228;2023-10-19T02:14:34;12.10;99.90
6581;DHT22;3324;50.796;7.228;2023-10-19T02:17:00;12.10;99.90
6581;DHT22;3324;50.796;7.228;2023-10-19T02:19:27;12.00;99.90
6581;DHT22;3324;50.796;7.228;2023-10-19T02:21:54;12.00;99.90
6581;DHT22;3324;50.796;7.228;2023-10-19T02:24:21;12.10;99.90
6581;DHT22;3324;50.796;7.228;2023-10-19T02:26:49;12.20;99.90
6581;DHT22;3324;50.796;7.228;2023-10-19T02:29:16;12.20;99.90
6581;DHT22;3324;50.796;7.228;2023-10-19T02:31:43;12.30;99.90
6581;DHT22;3324;50.796;7.228;2023-10-19T02:34:10;12.30;99.90
6581;DHT22;3324;50.796;7.228;2023-10-19T02:36:36;12.40;99.90
6581;DHT22;3324;50.796;7.228;2023-10-19T02:39:03;12.40;99.90
6581;DHT22;3324;50.796;7.228;2023-10-19T02:41:40;12.40;99.90
6581;DHT22;3324;50.796;7.228;2023-10-19T02:44:24;12.50;99.90
6581;DHT22;3324;50.796;7.228;2023-10-19T02:46:51;12.50;99.90
6581;DHT22;3324;50.796;7.228;2023-10-19T02:49:22;12.50;99.90
6581;DHT22;3324;50.796;7.228;2023-10-19T02:51:49;12.40;99.90
6581;DHT22;3324;50.796;7.228;2023-10-19T02:54:15;12.40;99.90
6581;DHT22;3324;50.796;7.228;2023-10-19T02:56:43;12.40;99.90
6581;DHT22;3324;50.796;7.228;2023-10-19T02:59:12;12.40;99.90
6581;DHT22;3324;50.796;7.228;2023-10-19T03:01:41;12.50;99.90
6581;DHT22;3324;50.796;7.228;2023-10-19T03:04:09;12.50;99.90
6581;DHT22;3324;50.796;7.228;2023-10-19T03:06:37;12.60;99.90
6581;DHT22;3324;50.796;7.228;2023-10-19T03:09:04;12.60;99.90
6581;DHT22;3324;50.796;7.228;2023-10-19T03:11:36;12.60;99.90
6581;DHT22;3324;50.796;7.228;2023-10-19T03:14:03;12.60;99.90
6581;DHT22;3324;50.796;7.228;2023-10-19T03:16:31;12.60;99.90
6581;DHT22;3324;50.796;7.228;2023-10-19T03:18:56;12.60;99.90
6581;DHT22;3324;50.796;7.228;2023-10-19T03:21:22;12.70;99.90
6581;DHT22;3324;50.796;7.228;2023-10-19T03:23:57;12.70;99.90
6581;DHT22;3324;50.796;7.228;2023-10-19T03:26:29;12.60;99.90
6581;DHT22;3324;50.796;7.228;2023-10-19T03:29:02;12.60;99.90
6581;DHT22;3324;50.796;7.228;2023-10-19T03:31:38;12.60;99.90
6581;DHT22;3324;50.796;7.228;2023-10-19T03:34:09;12.60;99.90
6581;DHT22;3324;50.796;7.228;2023-10-19T03:36:35;12.50;99.90
6581;DHT22;3324;50.796;7.228;2023-10-19T03:39:01;12.50;99.90
6581;DHT22;3324;50.796;7.228;2023-10-19T03:41:37;12.60;99.90
6581;DHT22;3324;50.796;7.228;2023-10-19T03:44:04;12.60;99.90
6581;DHT22;3324;50.796;7.228;2023-10-19T03:46:29;12.70;99.90
6581;DHT22;3324;50.796;7.228;2023-10-19T03:49:02;12.70;99.90
6581;DHT22;3324;50.796;7.228;2023-10-19T03:51:36;12.80;99.90
6581;DHT22;3324;50.796;7.228;2023-10-19T03:54:06;12.70;99.90
6581;DHT22;3324;50.796;7.228;2023-10-19T03:56:44;12.70;99.90
6581;DHT22;3324;50.796;7.228;2023-10-19T03:59:09;12.70;99.90
6581;DHT22;3324;50.796;7.228;2023-10-19T04:01:35;12.60;99.90
6581;DHT22;3324;50.796;7.228;2023-10-19T04:04:01;12.60;99.90
6581;DHT22;3324;50.796;7.228;2023-10-19T04:06:26;12.60;99.90
6581;DHT22;3324;50.796;7.228;2023-10-19T04:08:53;12.70;99.90
6581;DHT22;3324;50.796;7.228;2023-10-19T04:11:18;12.70;99.90
6581;DHT22;3324;50.796;7.228;2023-10-19T04:13:47;12.80;99.90
6581;DHT22;3324;50.796;7.228;2023-10-19T04:16:13;12.80;99.90
6581;DHT22;3324;50.796;7.228;2023-10-19T04:18:39;12.80;99.90
6581;DHT22;3324;50.796;7.228;2023-10-19T04:21:09;12.90;99.90
6581;DHT22;3324;50.796;7.228;2023-10-19T04:23:34;12.90;99.90
6581;DHT22;3324;50.796;7.228;2023-10-19T04:26:00;12.90;99.90
6581;DHT22;3324;50.796;7.228;2023-10-19T04:28:31;12.80;99.90
6581;DHT22;3324;50.796;7.228;2023-10-19T04:30:59;12.80;99.90
6581;DHT22;3324;50.796;7.228;2023-10-19T04:33:31;12.90;99.90
6581;DHT22;3324;50.796;7.228;2023-10-19T04:35:57;12.80;99.90
6581;DHT22;3324;50.796;7.228;2023-10-19T04:38:25;12.80;99.90
6581;DHT22;3324;50.796;7.228;2023-10-19T04:40:51;12.80;99.90
6581;DHT22;3324;50.796;7.228;2023-10-19T04:43:16;12.80;99.90
6581;DHT22;3324;50.796;7.228;2023-10-19T04:45:42;12.80;99.90
6581;DHT22;3324;50.796;7.228;2023-10-19T04:48:10;12.80;99.90
6581;DHT22;3324;50.796;7.228;2023-10-19T04:50:35;12.80;99.90
6581;DHT22;3324;50.796;7.228;2023-10-19T04:53:01;12.80;99.90
6581;DHT22;3324;50.796;7.228;2023-10-19T04:55:28;12.80;99.90
6581;DHT22;3324;50.796;7.228;2023-10-19T04:57:55;12.80;99.90
6581;DHT22;3324;50.796;7.228;2023-10-19T05:00:22;12.80;99.90
6581;DHT22;3324;50.796;7.228;2023-10-19T05:02:50;12.90;99.90
6581;DHT22;3324;50.796;7.228;2023-10-19T05:05:17;12.80;99.90
6581;DHT22;3324;50.796;7.228;2023-10-19T05:07:43;12.90;99.90
6581;DHT22;3324;50.796;7.228;2023-10-19T05:10:08;12.90;99.90
6581;DHT22;3324;50.796;7.228;2023-10-19T05:12:34;12.90;99.90
6581;DHT22;3324;50.796;7.228;2023-10-19T05:14:59;13.00;99.90
6581;DHT22;3324;50.796;7.228;2023-10-19T05:17:25;13.00;99.90
6581;DHT22;3324;50.796;7.228;2023-10-19T05:19:50;13.00;99.90
6581;DHT22;3324;50.796;7.228;2023-10-19T05:22:16;13.00;99.90
6581;DHT22;3324;50.796;7.228;2023-10-19T05:24:42;13.00;99.90
6581;DHT22;3324;50.796;7.228;2023-10-19T05:27:07;13.10;99.90
6581;DHT22;3324;50.796;7.228;2023-10-19T05:29:35;13.00;99.90
6581;DHT22;3324;50.796;7.228;2023-10-19T05:32:01;13.00;99.90
6581;DHT22;3324;50.796;7.228;2023-10-19T05:34:27;13.00;99.90
6581;DHT22;3324;50.796;7.228;2023-10-19T05:36:54;13.00;99.90
6581;DHT22;3324;50.796;7.228;2023-10-19T05:39:23;13.00;99.90
6581;DHT22;3324;50.796;7.228;2023-10-19T05:41:55;13.00;99.90
6581;DHT22;3324;50.796;7.228;2023-10-19T05:44:21;13.00;99.90
6581;DHT22;3324;50.796;7.228;2023-10-19T05:46:46;13.00;99.90
6581;DHT22;3324;50.796;7.228;2023-10-19T05:49:12;13.10;99.90
6581;DHT22;3324;50.796;7.228;2023-10-19T05:51:38;13.00;99.90
6581;DHT22;3324;50.796;7.228;2023-10-19T05:54:04;13.10;99.90
6581;DHT22;3324;50.796;7.228;2023-10-19T05:56:30;13.10;99.90
6581;DHT22;3324;50.796;7.228;2023-10-19T05:58:56;13.10;99.90
6581;DHT22;3324;50.796;7.228;2023-10-19T06:01:22;13.10;99.90
6581;DHT22;3324;50.796;7.228;2023-10-19T06:03:48;13.10;99.90
6581;DHT22;3324;50.796;7.228;2023-10-19T06:06:13;13.10;99.90
6581;DHT22;3324;50.796;7.228;2023-10-19T06:08:42;13.10;99.90
6581;DHT22;3324;50.796;7.228;2023-10-19T06:11:07;13.10;99.90
6581;DHT22;3324;50.796;7.228;2023-10-19T06:13:33;13.10;99.90
6581;DHT22;3324;50.796;7.228;2023-10-19T06:15:58;13.10;99.90
6581;DHT22;3324;50.796;7.228;2023-10-19T06:18:24;13.10;99.90
6581;DHT22;3324;50.796;7.228;2023-10-19T06:20:50;13.10;99.90
6581;DHT22;3324;50.796;7.228;2023-10-19T06:23:16;13.10;99.90
6581;DHT22;3324;50.796;7.228;2023-10-19T06:25:43;13.20;99.90
6581;DHT22;3324;50.796;7.228;2023-10-19T06:28:08;13.10;99.90
6581;DHT22;3324;50.796;7.228;2023-10-19T06:30:34;13.20;99.90
6581;DHT22;3324;50.796;7.228;2023-10-19T06:33:00;13.20;99.90
6581;DHT22;3324;50.796;7.228;2023-10-19T06:35:26;13.20;99.90
6581;DHT22;3324;50.796;7.228;2023-10-19T06:37:53;13.20;99.90
6581;DHT22;3324;50.796;7.228;2023-10-19T06:40:18;13.20;99.90
6581;DHT22;3324;50.796;7.228;2023-10-19T06:42:44;13.30;99.90
6581;DHT22;3324;50.796;7.228;2023-10-19T06:45:13;13.30;99.90
6581;DHT22;3324;50.796;7.228;2023-10-19T06:47:42;13.30;99.90
6581;DHT22;3324;50.796;7.228;2023-10-19T06:50:10;13.30;99.90
6581;DHT22;3324;50.796;7.228;2023-10-19T06:52:36;13.30;99.90
6581;DHT22;3324;50.796;7.228;2023-10-19T06:55:06;13.30;99.90
6581;DHT22;3324;50.796;7.228;2023-10-19T06:57:41;13.30;99.90
6581;DHT22;3324;50.796;7.228;2023-10-19T07:00:13;13.40;99.90
6581;DHT22;3324;50.796;7.228;2023-10-19T07:02:40;13.40;99.90
6581;DHT22;3324;50.796;7.228;2023-10-19T07:05:07;13.50;99.90
6581;DHT22;3324;50.796;7.228;2023-10-19T07:07:36;13.50;99.90
6581;DHT22;3324;50.796;7.228;2023-10-19T07:10:01;13.60;99.90
6581;DHT22;3324;50.796;7.228;2023-10-19T07:12:28;13.60;99.90
6581;DHT22;3324;50.796;7.228;2023-10-19T07:14:54;13.60;99.90
6581;DHT22;3324;50.796;7.228;2023-10-19T07:17:19;13.60;99.90
6581;DHT22;3324;50.796;7.228;2023-10-19T07:19:45;13.60;99.90
6581;DHT22;3324;50.796;7.228;2023-10-19T07:22:14;13.60;99.90
6581;DHT22;3324;50.796;7.228;2023-10-19T07:24:40;13.60;99.90
6581;DHT22;3324;50.796;7.228;2023-10-19T07:27:06;13.60;99.90
6581;DHT22;3324;50.796;7.228;2023-10-19T07:29:33;13.70;99.90
6581;DHT22;3324;50.796;7.228;2023-10-19T07:32:01;13.70;99.90
6581;DHT22;3324;50.796;7.228;2023-10-19T07:34:27;13.70;99.90
6581;DHT22;3324;50.796;7.228;2023-10-19T07:36:56;13.70;99.90
6581;DHT22;3324;50.796;7.228;2023-10-19T07:39:24;13.70;99.90
6581;DHT22;3324;50.796;7.228;2023-10-19T07:41:50;13.70;99.90
6581;DHT22;3324;50.796;7.228;2023-10-19T07:44:16;13.70;99.90
6581;DHT22;3324;50.796;7.228;2023-10-19T07:46:41;13.70;99.90
6581;DHT22;3324;50.796;7.228;2023-10-19T07:49:07;13.70;99.90
6581;DHT22;3324;50.796;7.228;2023-10-19T07:51:33;13.80;99.90
6581;DHT22;3324;50.796;7.228;2023-10-19T07:53:59;13.80;99.90
6581;DHT22;3324;50.796;7.228;2023-10-19T07:56:25;13.90;99.90
6581;DHT22;3324;50.796;7.228;2023-10-19T07:58:50;13.90;99.90
6581;DHT22;3324;50.796;7.228;2023-10-19T08:01:16;13.90;99.90
6581;DHT22;3324;50.796;7.228;2023-10-19T08:03:41;14.00;99.90
6581;DHT22;3324;50.796;7.228;2023-10-19T08:06:07;14.00;99.90
6581;DHT22;3324;50.796;7.228;2023-10-19T08:08:32;14.10;99.90
6581;DHT22;3324;50.796;7.228;2023-10-19T08:11:00;14.10;99.90
6581;DHT22;3324;50.796;7.228;2023-10-19T08:13:26;14.10;99.90
6581;DHT22;3324;50.796;7.228;2023-10-19T08:15:52;14.10;99.90
6581;DHT22;3324;50.796;7.228;2023-10-19T08:18:18;14.20;99.90
6581;DHT22;3324;50.796;7.228;2023-10-19T08:20:43;14.30;99.90
6581;DHT22;3324;50.796;7.228;2023-10-19T08:23:11;14.40;99.90
6581;DHT22;3324;50.796;7.228;2023-10-19T08:25:38;14.40;99.90
6581;DHT22;3324;50.796;7.228;2023-10-19T08:28:04;14.50;99.90
6581;DHT22;3324;50.796;7.228;2023-10-19T08:30:31;14.60;99.90
6581;DHT22;3324;50.796;7.228;2023-10-19T08:32:58;14.70;99.90
6581;DHT22;3324;50.796;7.228;2023-10-19T08:35:24;14.70;99.90
6581;DHT22;3324;50.796;7.228;2023-10-19T08:37:50;14.70;99.90
6581;DHT22;3324;50.796;7.228;2023-10-19T08:40:16;14.80;99.90
6581;DHT22;3324;50.796;7.228;2023-10-19T08:42:43;14.90;99.90
6581;DHT22;3324;50.796;7.228;2023-10-19T08:45:10;15.00;99.90
6581;DHT22;3324;50.796;7.228;2023-10-19T08:47:53;15.10;99.90
6581;DHT22;3324;50.796;7.228;2023-10-19T08:50:26;15.20;99.90
6581;DHT22;3324;50.796;7.228;2023-10-19T08:52:52;15.30;99.90
6581;DHT22;3324;50.796;7.228;2023-10-19T08:55:19;15.40;99.90
6581;DHT22;3324;50.796;7.228;2023-10-19T08:57:44;15.40;99.90
6581;DHT22;3324;50.796;7.228;2023-10-19T09:00:10;15.60;99.90
6581;DHT22;3324;50.796;7.228;2023-10-19T09:02:36;15.70;99.90
6581;DHT22;3324;50.796;7.228;2023-10-19T09:05:08;15.90;99.90
6581;DHT22;3324;50.796;7.228;2023-10-19T09:07:34;16.00;99.90
6581;DHT22;3324;50.796;7.228;2023-10-19T09:10:00;16.10;99.90
6581;DHT22;3324;50.796;7.228;2023-10-19T09:12:26;16.20;99.90
6581;DHT22;3324;50.796;7.228;2023-10-19T09:14:52;16.40;99.90
6581;DHT22;3324;50.796;7.228;2023-10-19T09:17:27;16.50;99.90
6581;DHT22;3324;50.796;7.228;2023-10-19T09:19:52;16.60;99.90
6581;DHT22;3324;50.796;7.228;2023-10-19T09:22:18;16.60;99.90
6581;DHT22;3324;50.796;7.228;2023-10-19T09:24:48;16.70;99.90
6581;DHT22;3324;50.796;7.228;2023-10-19T09:27:17;16.70;99.90
6581;DHT22;3324;50.796;7.228;2023-10-19T09:29:43;16.70;99.90
6581;DHT22;3324;50.796;7.228;2023-10-19T09:32:08;16.90;99.90
6581;DHT22;3324;50.796;7.228;2023-10-19T09:34:35;17.00;99.90
6581;DHT22;3324;50.796;7.228;2023-10-19T09:37:01;17.10;99.90
6581;DHT22;3324;50.796;7.228;2023-10-19T09:39:28;17.20;99.90
6581;DHT22;3324;50.796;7.228;2023-10-19T09:42:06;17.30;99.90
6581;DHT22;3324;50.796;7.228;2023-10-19T09:44:42;17.40;99.90
6581;DHT22;3324;50.796;7.228;2023-10-19T09:47:11;17.50;99.90
6581;DHT22;3324;50.796;7.228;2023-10-19T09:49:38;17.50;99.90
6581;DHT22;3324;50.796;7.228;2023-10-19T09:52:04;17.60;99.90
6581;DHT22;3324;50.796;7.228;2023-10-19T09:54:42;17.60;99.90
6581;DHT22;3324;50.796;7.228;2023-10-19T09:57:14;17.80;99.90
6581;DHT22;3324;50.796;7.228;2023-10-19T09:59:43;17.90;99.90
6581;DHT22;3324;50.796;7.228;2023-10-19T10:04:38;18.00;99.90
6581;DHT22;3324;50.796;7.228;2023-10-19T10:07:05;18.10;99.90
6581;DHT22;3324;50.796;7.228;2023-10-19T10:09:32;18.10;99.90
6581;DHT22;3324;50.796;7.228;2023-10-19T10:12:15;18.10;99.90
6581;DHT22;3324;50.796;7.228;2023-10-19T10:14:41;18.30;99.90
6581;DHT22;3324;50.796;7.228;2023-10-19T10:17:17;18.40;99.90
6581;DHT22;3324;50.796;7.228;2023-10-19T10:19:44;18.60;99.90
6581;DHT22;3324;50.796;7.228;2023-10-19T10:22:10;18.70;99.90
6581;DHT22;3324;50.796;7.228;2023-10-19T10:24:43;18.80;99.90
6581;DHT22;3324;50.796;7.228;2023-10-19T10:27:09;18.80;99.90
6581;DHT22;3324;50.796;7.228;2023-10-19T10:29:35;18.90;99.90
6581;DHT22;3324;50.796;7.228;2023-10-19T10:32:01;18.80;99.90
6581;DHT22;3324;50.796;7.228;2023-10-19T10:36:59;18.70;99.90
6581;DHT22;3324;50.796;7.228;2023-10-19T10:39:28;18.70;99.90
6581;DHT22;3324;50.796;7.228;2023-10-19T10:41:58;18.60;99.90
6581;DHT22;3324;50.796;7.228;2023-10-19T10:47:06;18.50;99.90
6581;DHT22;3324;50.796;7.228;2023-10-19T10:49:35;18.50;99.90
6581;DHT22;3324;50.796;7.228;2023-10-19T10:52:01;18.50;99.90
6581;DHT22;3324;50.796;7.228;2023-10-19T10:54:26;18.50;99.90
6581;DHT22;3324;50.796;7.228;2023-10-19T10:56:52;18.40;99.90
6581;DHT22;3324;50.796;7.228;2023-10-19T10:59:17;18.30;99.90
6581;DHT22;3324;50.796;7.228;2023-10-19T11:01:43;18.30;99.90
6581;DHT22;3324;50.796;7.228;2023-10-19T11:04:09;18.30;99.90
6581;DHT22;3324;50.796;7.228;2023-10-19T11:06:45;18.20;99.90
6581;DHT22;3324;50.796;7.228;2023-10-19T11:09:11;18.20;99.90
6581;DHT22;3324;50.796;7.228;2023-10-19T11:11:37;18.20;99.90
6581;DHT22;3324;50.796;7.228;2023-10-19T11:14:09;18.10;99.90
6581;DHT22;3324;50.796;7.228;2023-10-19T11:16:36;18.00;99.90
6581;DHT22;3324;50.796;7.228;2023-10-19T11:19:04;18.10;99.90
6581;DHT22;3324;50.796;7.228;2023-10-19T11:21:29;17.90;99.90
6581;DHT22;3324;50.796;7.228;2023-10-19T11:23:55;18.00;99.90
6581;DHT22;3324;50.796;7.228;2023-10-19T11:26:24;17.90;99.90
6581;DHT22;3324;50.796;7.228;2023-10-19T11:28:59;17.90;99.90
6581;DHT22;3324;50.796;7.228;2023-10-19T11:31:26;17.90;99.90
6581;DHT22;3324;50.796;7.228;2023-10-19T11:33:53;17.90;99.90
6581;DHT22;3324;50.796;7.228;2023-10-19T11:36:21;17.90;99.90
6581;DHT22;3324;50.796;7.228;2023-10-19T11:38:48;17.90;99.90
6581;DHT22;3324;50.796;7.228;2023-10-19T11:41:14;17.90;99.90
6581;DHT22;3324;50.796;7.228;2023-10-19T11:43:40;17.80;99.90
6581;DHT22;3324;50.796;7.228;2023-10-19T11:46:06;17.80;99.90
6581;DHT22;3324;50.796;7.228;2023-10-19T11:48:32;17.80;99.90
6581;DHT22;3324;50.796;7.228;2023-10-19T11:50:57;17.80;99.90
6581;DHT22;3324;50.796;7.228;2023-10-19T11:53:23;17.70;99.90
6581;DHT22;3324;50.796;7.228;2023-10-19T11:55:48;17.70;99.90
6581;DHT22;3324;50.796;7.228;2023-10-19T11:58:14;17.80;99.90
6581;DHT22;3324;50.796;7.228;2023-10-19T12:00:40;17.80;99.90
6581;DHT22;3324;50.796;7.228;2023-10-19T12:03:09;17.70;99.90
6581;DHT22;3324;50.796;7.228;2023-10-19T12:05:35;17.70;99.90
6581;DHT22;3324;50.796;7.228;2023-10-19T12:08:02;17.60;99.90
6581;DHT22;3324;50.796;7.228;2023-10-19T12:10:28;17.60;99.90
6581;DHT22;3324;50.796;7.228;2023-10-19T12:13:06;17.50;99.90
6581;DHT22;3324;50.796;7.228;2023-10-19T12:15:32;17.50;99.90
6581;DHT22;3324;50.796;7.228;2023-10-19T12:17:58;17.50;99.90
6581;DHT22;3324;50.796;7.228;2023-10-19T12:20:24;17.50;99.90
6581;DHT22;3324;50.796;7.228;2023-10-19T12:22:50;17.50;99.90
6581;DHT22;3324;50.796;7.228;2023-10-19T12:25:21;17.40;99.90
6581;DHT22;3324;50.796;7.228;2023-10-19T12:27:54;17.30;99.90
6581;DHT22;3324;50.796;7.228;2023-10-19T12:30:20;17.30;99.90
6581;DHT22;3324;50.796;7.228;2023-10-19T12:32:47;17.30;99.90
6581;DHT22;3324;50.796;7.228;2023-10-19T12:35:15;17.30;99.90
6581;DHT22;3324;50.796;7.228;2023-10-19T12:37:40;17.30;99.90
6581;DHT22;3324;50.796;7.228;2023-10-19T12:40:14;17.30;99.90
6581;DHT22;3324;50.796;7.228;2023-10-19T12:42:55;17.40;99.90
6581;DHT22;3324;50.796;7.228;2023-10-19T12:45:21;17.40;99.90
6581;DHT22;3324;50.796;7.228;2023-10-19T12:47:47;17.40;99.90
6581;DHT22;3324;50.796;7.228;2023-10-19T12:50:14;17.40;99.90
6581;DHT22;3324;50.796;7.228;2023-10-19T12:52:39;17.40;99.90
6581;DHT22;3324;50.796;7.228;2023-10-19T12:55:06;17.40;99.90
6581;DHT22;3324;50.796;7.228;2023-10-19T12:57:32;17.30;99.90
6581;DHT22;3324;50.796;7.228;2023-10-19T12:59:58;17.30;99.90
6581;DHT22;3324;50.796;7.228;2023-10-19T13:02:31;17.30;99.90
6581;DHT22;3324;50.796;7.228;2023-10-19T13:04:57;17.30;99.90
6581;DHT22;3324;50.796;7.228;2023-10-19T13:07:24;17.20;99.90
6581;DHT22;3324;50.796;7.228;2023-10-19T13:09:51;17.20;99.90
6581;DHT22;3324;50.796;7.228;2023-10-19T13:12:17;17.30;99.90
6581;DHT22;3324;50.796;7.228;2023-10-19T13:14:46;17.30;99.90
6581;DHT22;3324;50.796;7.228;2023-10-19T13:17:11;17.30;99.90
6581;DHT22;3324;50.796;7.228;2023-10-19T13:19:36;17.30;99.90
6581;DHT22;3324;50.796;7.228;2023-10-19T13:22:02;17.30;99.90
6581;DHT22;3324;50.796;7.228;2023-10-19T13:24:33;17.30;99.90
6581;DHT22;3324;50.796;7.228;2023-10-19T13:27:06;17.30;99.90
6581;DHT22;3324;50.796;7.228;2023-10-19T13:29:31;17.20;99.90
6581;DHT22;3324;50.796;7.228;2023-10-19T13:32:02;17.30;99.90
6581;DHT22;3324;50.796;7.228;2023-10-19T13:34:28;17.20;99.90
6581;DHT22;3324;50.796;7.228;2023-10-19T13:36:53;17.20;99.90
6581;DHT22;3324;50.796;7.228;2023-10-19T13:39:21;17.10;99.90
6581;DHT22;3324;50.796;7.228;2023-10-19T13:41:50;17.10;99.90
6581;DHT22;3324;50.796;7.228;2023-10-19T13:44:18;17.10;99.90
6581;DHT22;3324;50.796;7.228;2023-10-19T13:46:48;17.10;99.90
6581;DHT22;3324;50.796;7.228;2023-10-19T13:49:16;17.00;99.90
6581;DHT22;3324;50.796;7.228;2023-10-19T13:51:44;17.00;99.90
6581;DHT22;3324;50.796;7.228;2023-10-19T13:54:09;17.00;99.90
6581;DHT22;3324;50.796;7.228;2023-10-19T13:56:35;17.00;99.90
6581;DHT22;3324;50.796;7.228;2023-10-19T13:59:00;17.00;99.90
6581;DHT22;3324;50.796;7.228;2023-10-19T14:01:26;17.00;99.90
6581;DHT22;3324;50.796;7.228;2023-10-19T14:03:54;17.00;99.90
6581;DHT22;3324;50.796;7.228;2023-10-19T14:06:22;17.00;99.90
6581;DHT22;3324;50.796;7.228;2023-10-19T14:08:50;17.00;99.90
6581;DHT22;3324;50.796;7.228;2023-10-19T14:11:16;17.00;99.90
6581;DHT22;3324;50.796;7.228;2023-10-19T14:13:42;16.90;99.90
6581;DHT22;3324;50.796;7.228;2023-10-19T14:16:07;16.80;99.90
6581;DHT22;3324;50.796;7.228;2023-10-19T14:18:33;16.80;99.90
6581;DHT22;3324;50.796;7.228;2023-10-19T14:20:59;16.80;99.90
6581;DHT22;3324;50.796;7.228;2023-10-19T14:23:25;16.80;99.90
6581;DHT22;3324;50.796;7.228;2023-10-19T14:25:52;16.70;99.90
6581;DHT22;3324;50.796;7.228;2023-10-19T14:28:18;16.60;99.90
6581;DHT22;3324;50.796;7.228;2023-10-19T14:30:43;16.60;99.90
6581;DHT22;3324;50.796;7.228;2023-10-19T14:33:10;16.60;99.90
6581;DHT22;3324;50.796;7.228;2023-10-19T14:35:36;16.60;99.90
6581;DHT22;3324;50.796;7.228;2023-10-19T14:38:04;16.60;99.90
6581;DHT22;3324;50.796;7.228;2023-10-19T14:40:31;16.60;99.90
6581;DHT22;3324;50.796;7.228;2023-10-19T14:42:57;16.60;99.90
6581;DHT22;3324;50.796;7.228;2023-10-19T14:45:24;16.60;99.90
6581;DHT22;3324;50.796;7.228;2023-10-19T14:47:51;16.60;99.90
6581;DHT22;3324;50.796;7.228;2023-10-19T14:50:17;16.60;99.90
6581;DHT22;3324;50.796;7.228;2023-10-19T14:52:46;16.60;99.90
6581;DHT22;3324;50.796;7.228;2023-10-19T14:55:12;16.60;99.90
6581;DHT22;3324;50.796;7.228;2023-10-19T14:57:40;16.60;99.90
6581;DHT22;3324;50.796;7.228;2023-10-19T15:00:06;16.60;99.90
6581;DHT22;3324;50.796;7.228;2023-10-19T15:02:49;16.60;99.90
6581;DHT22;3324;50.796;7.228;2023-10-19T15:05:15;16.60;99.90
6581;DHT22;3324;50.796;7.228;2023-10-19T15:07:41;16.60;99.90
6581;DHT22;3324;50.796;7.228;2023-10-19T15:10:08;16.60;99.90
6581;DHT22;3324;50.796;7.228;2023-10-19T15:12:38;16.60;99.90
6581;DHT22;3324;50.796;7.228;2023-10-19T15:15:03;16.60;99.90
6581;DHT22;3324;50.796;7.228;2023-10-19T15:17:29;16.60;99.90
6581;DHT22;3324;50.796;7.228;2023-10-19T15:19:54;16.60;99.90
6581;DHT22;3324;50.796;7.228;2023-10-19T15:22:20;16.50;99.90
6581;DHT22;3324;50.796;7.228;2023-10-19T15:24:45;16.50;99.90
6581;DHT22;3324;50.796;7.228;2023-10-19T15:27:16;16.50;99.90
6581;DHT22;3324;50.796;7.228;2023-10-19T15:29:43;16.50;99.90
6581;DHT22;3324;50.796;7.228;2023-10-19T15:32:09;16.60;99.90
6581;DHT22;3324;50.796;7.228;2023-10-19T15:34:35;16.60;99.90
6581;DHT22;3324;50.796;7.228;2023-10-19T15:37:01;16.60;99.90
6581;DHT22;3324;50.796;7.228;2023-10-19T15:39:27;16.70;99.90
6581;DHT22;3324;50.796;7.228;2023-10-19T15:41:53;16.60;99.90
6581;DHT22;3324;50.796;7.228;2023-10-19T15:44:18;16.70;99.90
6581;DHT22;3324;50.796;7.228;2023-10-19T15:46:44;16.70;99.90
6581;DHT22;3324;50.796;7.228;2023-10-19T15:49:11;16.70;99.90
6581;DHT22;3324;50.796;7.228;2023-10-19T15:51:37;16.70;99.90
6581;DHT22;3324;50.796;7.228;2023-10-19T15:54:03;16.80;99.90
6581;DHT22;3324;50.796;7.228;2023-10-19T15:56:30;16.80;99.90
6581;DHT22;3324;50.796;7.228;2023-10-19T15:58:56;16.80;99.90
6581;DHT22;3324;50.796;7.228;2023-10-19T16:01:21;16.70;99.90
6581;DHT22;3324;50.796;7.228;2023-10-19T16:03:47;16.70;99.90
6581;DHT22;3324;50.796;7.228;2023-10-19T16:06:12;16.70;99.90
6581;DHT22;3324;50.796;7.228;2023-10-19T16:08:38;16.70;99.90
6581;DHT22;3324;50.796;7.228;2023-10-19T16:11:04;16.60;99.90
6581;DHT22;3324;50.796;7.228;2023-10-19T16:13:29;16.50;99.90
6581;DHT22;3324;50.796;7.228;2023-10-19T16:15:55;16.50;99.90